createdAt,value
2017-05-22T00:01:17.579Z,4.77
2017-05-22T00:03:45.893Z,4.97
2017-05-22T00:06:14.203Z,5.58
2017-05-22T00:08:42.634Z,4.93
2017-05-22T00:11:10.950Z,4.88
2017-05-22T00:13:39.569Z,6.40
2017-05-22T00:16:07.876Z,5.60
2017-05-22T00:18:36.196Z,6.10
2017-05-22T00:21:05.637Z,5.22
2017-05-22T00:23:33.948Z,5.25
2017-05-22T00:26:02.257Z,7.37
2017-05-22T00:28:30.605Z,5.90
2017-05-22T00:30:59.486Z,5.20
2017-05-22T00:33:27.801Z,5.43
2017-05-22T00:35:56.109Z,5.07
2017-05-22T00:38:24.873Z,5.53
2017-05-22T00:40:53.189Z,4.75
2017-05-22T00:43:21.497Z,5.28
2017-05-22T00:45:49.862Z,5.30
2017-05-22T00:48:18.177Z,4.90
2017-05-22T00:50:46.541Z,7.98
2017-05-22T00:53:14.410Z,4.98
2017-05-22T00:55:42.723Z,6.17
2017-05-22T00:58:11.041Z,5.55
2017-05-22T01:00:39.937Z,5.78
2017-05-22T01:03:08.257Z,5.73
2017-05-22T01:05:36.569Z,5.80
2017-05-22T01:08:04.925Z,5.67
2017-05-22T01:10:33.246Z,5.48
2017-05-22T01:13:02.020Z,5.57
2017-05-22T01:15:30.339Z,6.18
2017-05-22T01:17:58.646Z,6.62
2017-05-22T01:20:27.066Z,6.72
2017-05-22T01:22:55.380Z,6.30
2017-05-22T01:25:25.521Z,6.97
2017-05-22T01:27:53.837Z,6.65
2017-05-22T01:30:22.155Z,7.30
2017-05-22T01:32:51.117Z,7.90
2017-05-22T01:35:19.441Z,7.83
2017-05-22T01:37:47.751Z,7.00
2017-05-22T01:40:16.195Z,6.62
2017-05-22T01:42:44.549Z,6.72
2017-05-22T01:45:12.862Z,8.07
2017-05-22T01:47:41.498Z,7.50
2017-05-22T01:50:09.809Z,7.57
2017-05-22T01:52:38.137Z,6.50
2017-05-22T01:55:06.843Z,7.37
2017-05-22T01:57:35.158Z,6.90
2017-05-22T02:00:03.471Z,7.02
2017-05-22T02:02:32.343Z,7.57
2017-05-22T02:05:00.665Z,7.03
2017-05-22T02:07:29.076Z,7.20
2017-05-22T02:09:59.039Z,7.50
2017-05-22T02:12:27.349Z,6.43
2017-05-22T02:14:55.663Z,6.80
2017-05-22T02:17:24.505Z,7.18
2017-05-22T02:19:52.816Z,7.02
2017-05-22T02:22:21.129Z,6.05
2017-05-22T02:24:49.482Z,6.85
2017-05-22T02:27:18.505Z,6.67
2017-05-22T02:29:46.865Z,6.27
2017-05-22T02:32:15.243Z,6.12
2017-05-22T02:34:44.196Z,5.42
2017-05-22T02:37:12.553Z,5.52
2017-05-22T02:39:41.105Z,5.33
2017-05-22T02:42:09.493Z,5.82
2017-05-22T02:44:37.805Z,5.40
2017-05-22T02:47:06.158Z,5.67
2017-05-22T02:49:34.514Z,6.52
2017-05-22T02:52:03.185Z,6.95
2017-05-22T02:54:31.537Z,6.30
2017-05-22T02:56:59.853Z,6.50
2017-05-22T02:59:28.596Z,7.03
2017-05-22T03:01:56.910Z,7.43
2017-05-22T03:04:25.219Z,6.93
2017-05-22T03:06:53.613Z,6.98
2017-05-22T03:09:23.854Z,7.15
2017-05-22T03:11:52.165Z,7.13
2017-05-22T03:14:20.517Z,6.32
2017-05-22T03:16:48.940Z,6.83
2017-05-22T03:19:17.308Z,6.40
2017-05-22T03:21:45.673Z,7.12
2017-05-22T03:24:16.944Z,7.83
2017-05-22T03:26:45.309Z,6.87
2017-05-22T03:29:13.675Z,6.47
2017-05-22T03:31:42.365Z,6.15
2017-05-22T03:34:10.695Z,5.62
2017-05-22T03:36:39.361Z,6.70
2017-05-22T03:39:07.721Z,6.40
2017-05-22T03:41:36.074Z,6.40
2017-05-22T03:44:04.478Z,6.20
2017-05-22T03:46:32.841Z,7.52
2017-05-22T03:49:02.887Z,6.63
2017-05-22T03:51:31.200Z,8.17
2017-05-22T03:53:59.510Z,6.08
2017-05-22T03:56:27.902Z,7.33
2017-05-22T03:58:56.270Z,7.95
2017-05-22T04:01:24.629Z,8.52
2017-05-22T04:03:52.217Z,5.88
2017-05-22T04:06:21.213Z,6.25
2017-05-22T04:08:49.520Z,5.63
2017-05-22T04:11:17.876Z,6.65
2017-05-22T04:13:46.667Z,7.33
2017-05-22T04:16:15.024Z,6.48
2017-05-22T04:18:43.344Z,7.33
2017-05-22T04:21:11.833Z,7.30
2017-05-22T04:23:40.205Z,6.65
2017-05-22T04:26:08.981Z,7.17
2017-05-22T04:28:37.301Z,6.28
2017-05-22T04:31:05.689Z,7.73
2017-05-22T04:33:33.913Z,7.72
2017-05-22T04:36:02.280Z,7.25
2017-05-22T04:38:30.596Z,7.57
2017-05-22T04:40:59.264Z,6.93
2017-05-22T04:43:27.578Z,6.67
2017-05-22T04:45:55.933Z,7.03
2017-05-22T04:48:24.248Z,7.78
2017-05-22T04:50:54.293Z,7.28
2017-05-22T04:53:22.659Z,7.50
2017-05-22T04:55:50.990Z,6.45
2017-05-22T04:58:19.537Z,6.95
2017-05-22T05:00:47.905Z,7.37
2017-05-22T05:03:16.229Z,6.47
2017-05-22T05:05:44.913Z,7.10
2017-05-22T05:08:13.282Z,6.58
2017-05-22T05:10:41.649Z,6.85
2017-05-22T05:13:11.425Z,6.85
2017-05-22T05:15:39.785Z,6.17
2017-05-22T05:18:08.161Z,6.62
2017-05-22T05:20:38.111Z,6.45
2017-05-22T05:23:06.425Z,6.90
2017-05-22T05:25:34.735Z,7.03
2017-05-22T05:28:05.186Z,6.25
2017-05-22T05:30:33.550Z,6.75
2017-05-22T05:33:01.913Z,6.40
2017-05-22T05:35:32.131Z,6.48
2017-05-22T05:38:00.451Z,6.17
2017-05-22T05:40:28.900Z,7.32
2017-05-22T05:42:57.267Z,7.20
2017-05-22T05:45:25.635Z,6.08
2017-05-22T05:47:58.318Z,6.15
2017-05-22T05:50:26.688Z,6.82
2017-05-22T05:52:55.058Z,5.93
2017-05-22T05:55:23.473Z,6.23
2017-05-22T05:57:51.813Z,6.18
2017-05-22T06:00:20.522Z,6.45
2017-05-22T06:02:48.852Z,6.18
2017-05-22T06:05:17.213Z,6.87
2017-05-22T06:07:45.753Z,6.15
2017-05-22T06:10:14.137Z,6.10
2017-05-22T06:12:42.563Z,6.38
2017-05-22T06:15:11.040Z,5.88
2017-05-22T06:17:39.407Z,6.20
2017-05-22T06:20:07.729Z,6.32
2017-05-22T06:22:36.201Z,6.43
2017-05-22T06:25:03.797Z,6.45
2017-05-22T06:27:32.165Z,5.82
2017-05-22T06:30:00.525Z,6.43
2017-05-22T06:32:28.890Z,7.72
2017-05-22T06:34:57.361Z,6.40
2017-05-22T06:37:26.412Z,6.78
2017-05-22T06:39:55.321Z,6.88
2017-05-22T06:42:23.680Z,6.20
2017-05-22T06:44:52.526Z,5.72
2017-05-22T06:47:20.913Z,6.23
2017-05-22T06:49:49.234Z,5.78
2017-05-22T06:52:17.590Z,5.95
2017-05-22T06:54:45.921Z,5.45
2017-05-22T06:57:14.641Z,6.55
2017-05-22T06:59:42.970Z,5.65
2017-05-22T07:02:11.289Z,6.08
2017-05-22T07:04:39.845Z,5.92
2017-05-22T07:07:08.166Z,5.93
2017-05-22T07:09:36.564Z,6.17
2017-05-22T07:12:04.886Z,5.77
2017-05-22T07:14:33.294Z,5.63
2017-05-22T07:17:01.701Z,5.55
2017-05-22T07:19:30.022Z,5.62
2017-05-22T07:21:58.771Z,5.77
2017-05-22T07:24:27.096Z,5.85
2017-05-22T07:26:55.409Z,5.83
2017-05-22T07:29:23.810Z,4.87
2017-05-22T07:31:52.143Z,5.58
2017-05-22T07:34:20.830Z,6.15
2017-05-22T07:36:49.146Z,4.92
2017-05-22T07:39:17.501Z,5.88
2017-05-22T07:41:46.704Z,5.90
2017-05-22T07:44:15.029Z,6.00
2017-05-22T07:46:43.346Z,5.65
2017-05-22T07:49:11.705Z,5.77
2017-05-22T07:51:41.669Z,5.72
2017-05-22T07:54:10.030Z,4.82
2017-05-22T07:56:38.403Z,5.37
2017-05-22T07:59:07.114Z,5.38
2017-05-22T08:01:35.477Z,4.90
2017-05-22T08:04:03.850Z,5.05
2017-05-22T08:06:31.638Z,5.08
2017-05-22T08:08:59.961Z,6.12
2017-05-22T08:11:28.603Z,5.05
2017-05-22T08:13:56.975Z,5.18
2017-05-22T08:16:25.345Z,4.87
2017-05-22T08:18:54.057Z,5.07
2017-05-22T08:21:22.460Z,4.48
2017-05-22T08:23:50.833Z,5.03
2017-05-22T08:26:19.430Z,4.65
2017-05-22T08:28:47.810Z,4.72
2017-05-22T08:31:16.345Z,4.77
2017-05-22T08:33:45.162Z,5.03
2017-05-22T08:36:13.529Z,4.23
2017-05-22T08:38:41.870Z,4.58
2017-05-22T08:41:10.460Z,5.20
2017-05-22T08:43:38.802Z,4.65
2017-05-22T08:46:07.121Z,4.98
2017-05-22T08:48:35.627Z,4.65
2017-05-22T08:51:03.949Z,4.42
2017-05-22T08:53:32.777Z,4.35
2017-05-22T08:56:01.119Z,4.80
2017-05-22T08:58:29.434Z,4.70
2017-05-22T09:00:58.235Z,4.90
2017-05-22T09:03:26.592Z,5.32
2017-05-22T09:05:54.920Z,4.40
2017-05-22T09:08:23.286Z,4.40
2017-05-22T09:10:51.603Z,4.20
2017-05-22T09:13:20.001Z,4.62
2017-05-22T09:15:48.388Z,4.16
2017-05-22T09:18:17.087Z,4.56
2017-05-22T09:20:45.427Z,5.10
2017-05-22T09:23:18.674Z,4.38
2017-05-22T09:25:47.461Z,4.14
2017-05-22T09:28:15.778Z,4.28
2017-05-22T09:30:44.150Z,4.40
2017-05-22T09:33:12.781Z,3.92
2017-05-22T09:35:41.096Z,4.52
2017-05-22T09:38:09.606Z,4.30
2017-05-22T09:40:37.177Z,4.76
2017-05-22T09:43:05.651Z,4.20
2017-05-22T09:45:34.070Z,3.68
2017-05-22T09:48:02.433Z,3.84
2017-05-22T09:50:31.004Z,4.16
2017-05-22T09:52:59.379Z,3.88
2017-05-22T09:55:28.130Z,4.72
2017-05-22T09:57:56.462Z,4.34
2017-05-22T10:00:24.889Z,5.10
2017-05-22T10:02:53.335Z,4.36
2017-05-22T10:05:21.649Z,3.86
2017-05-22T10:07:50.065Z,3.98
2017-05-22T10:10:18.482Z,4.20
2017-05-22T10:12:46.852Z,3.76
2017-05-22T10:15:15.266Z,4.16
2017-05-22T10:17:43.642Z,3.82
2017-05-22T10:20:12.593Z,3.56
2017-05-22T10:22:40.903Z,3.88
2017-05-22T10:25:09.239Z,4.00
2017-05-22T10:27:37.605Z,3.50
2017-05-22T10:30:05.917Z,3.60
2017-05-22T10:32:34.642Z,4.48
2017-05-22T10:35:03.009Z,4.26
2017-05-22T10:37:31.369Z,3.54
2017-05-22T10:40:00.408Z,4.12
2017-05-22T10:42:29.246Z,4.14
2017-05-22T10:44:57.571Z,4.26
2017-05-22T10:47:25.938Z,3.76
2017-05-22T10:49:54.734Z,4.22
2017-05-22T10:52:23.113Z,4.28
2017-05-22T10:54:51.467Z,3.72
2017-05-22T10:57:19.570Z,3.80
2017-05-22T10:59:47.898Z,4.26
2017-05-22T11:02:16.736Z,4.42
2017-05-22T11:04:45.077Z,4.38
2017-05-22T11:07:13.437Z,6.34
2017-05-22T11:09:42.157Z,7.80
2017-05-22T11:12:10.483Z,5.98
2017-05-22T11:14:38.841Z,4.30
2017-05-22T11:17:11.293Z,4.38
2017-05-22T11:19:39.615Z,4.64
2017-05-22T11:22:07.929Z,5.18
2017-05-22T11:24:36.369Z,4.20
2017-05-22T11:27:04.750Z,4.50
2017-05-22T11:29:33.073Z,4.72
2017-05-22T11:32:01.476Z,4.30
2017-05-22T11:34:29.850Z,4.60
2017-05-22T11:36:58.697Z,4.30
2017-05-22T11:39:27.057Z,4.78
2017-05-22T11:41:55.419Z,4.78
2017-05-22T11:44:24.101Z,4.16
2017-05-22T11:46:52.453Z,4.24
2017-05-22T11:49:20.830Z,4.08
2017-05-22T11:51:49.648Z,8.72
2017-05-22T11:54:17.973Z,4.98
2017-05-22T11:56:46.337Z,4.68
2017-05-22T11:59:15.396Z,4.54
2017-05-22T12:01:43.720Z,4.22
2017-05-22T12:04:12.083Z,4.14
2017-05-22T12:06:40.493Z,4.28
2017-05-22T12:09:08.858Z,4.28
2017-05-22T12:11:37.218Z,4.70
2017-05-22T12:14:05.541Z,4.76
2017-05-22T12:16:34.662Z,4.32
2017-05-22T12:19:02.985Z,3.90
2017-05-22T12:21:31.347Z,4.70
2017-05-22T12:23:59.817Z,4.20
2017-05-22T12:26:28.181Z,4.18
2017-05-22T12:28:56.553Z,4.52
2017-05-22T12:31:25.001Z,4.12
2017-05-22T12:33:53.918Z,4.50
2017-05-22T12:36:22.277Z,4.02
2017-05-22T12:38:50.641Z,4.10
2017-05-22T12:41:19.062Z,4.08
2017-05-22T12:43:47.425Z,4.00
2017-05-22T12:46:15.789Z,3.94
2017-05-22T12:48:44.153Z,4.60
2017-05-22T12:51:12.988Z,4.56
2017-05-22T12:53:41.311Z,4.92
2017-05-22T12:56:09.633Z,4.46
2017-05-22T12:58:38.035Z,4.18
2017-05-22T13:01:07.095Z,3.92
2017-05-22T13:03:35.420Z,4.54
2017-05-22T13:06:03.783Z,4.38
2017-05-22T13:08:32.187Z,4.34
2017-05-22T13:11:00.515Z,4.36
2017-05-22T13:13:29.067Z,4.00
2017-05-22T13:15:56.619Z,3.86
2017-05-22T13:18:24.934Z,4.26
2017-05-22T13:20:53.355Z,3.86
2017-05-22T13:23:21.712Z,3.96
2017-05-22T13:25:50.031Z,4.30
2017-05-22T13:28:18.553Z,3.62
2017-05-22T13:30:46.922Z,3.30
2017-05-22T13:33:16.222Z,3.94
2017-05-22T13:35:44.583Z,4.10
2017-05-22T13:38:12.909Z,4.06
2017-05-22T13:40:41.421Z,4.10
2017-05-22T13:43:09.790Z,4.10
2017-05-22T13:45:38.142Z,3.64
2017-05-22T13:48:06.501Z,3.86
2017-05-22T13:50:35.194Z,3.80
2017-05-22T13:53:03.505Z,4.02
2017-05-22T13:55:31.822Z,4.14
2017-05-22T13:58:00.433Z,4.62
2017-05-22T14:00:29.226Z,3.76
2017-05-22T14:02:57.538Z,4.00
2017-05-22T14:05:25.855Z,4.14
2017-05-22T14:07:54.669Z,3.70
2017-05-22T14:10:22.982Z,3.78
2017-05-22T14:12:51.340Z,3.72
2017-05-22T14:15:24.975Z,4.00
2017-05-22T14:17:53.291Z,3.22
2017-05-22T14:20:21.601Z,3.12
2017-05-22T14:22:50.051Z,3.60
2017-05-22T14:25:18.393Z,3.60
2017-05-22T14:27:46.702Z,3.72
2017-05-22T14:30:15.219Z,3.70
2017-05-22T14:32:43.535Z,4.06
2017-05-22T14:35:12.298Z,3.28
2017-05-22T14:37:40.609Z,4.02
2017-05-22T14:40:09.317Z,3.30
2017-05-22T14:42:37.687Z,3.54
2017-05-22T14:45:05.997Z,3.44
2017-05-22T14:47:34.716Z,3.72
2017-05-22T14:50:03.037Z,3.98
2017-05-22T14:52:31.401Z,3.62
2017-05-22T14:55:00.117Z,3.56
2017-05-22T14:57:28.472Z,3.40
2017-05-22T14:59:56.787Z,3.54
2017-05-22T15:02:25.337Z,3.30
2017-05-22T15:04:53.740Z,3.36
2017-05-22T15:07:22.165Z,3.42
2017-05-22T15:09:50.529Z,3.60
2017-05-22T15:12:18.911Z,3.82
2017-05-22T15:14:47.420Z,3.52
2017-05-22T15:17:15.726Z,6.32
2017-05-22T15:19:44.146Z,3.10
2017-05-22T15:22:12.525Z,3.60
2017-05-22T15:24:40.896Z,3.62
2017-05-22T15:27:08.985Z,3.94
2017-05-22T15:29:37.318Z,3.60
2017-05-22T15:32:05.874Z,3.32
2017-05-22T15:34:34.813Z,3.42
2017-05-22T15:37:03.168Z,3.50
2017-05-22T15:39:31.537Z,3.74
2017-05-22T15:41:59.941Z,3.48
2017-05-22T15:44:28.311Z,4.12
2017-05-22T15:46:56.621Z,3.76
2017-05-22T15:49:30.517Z,4.00
2017-05-22T15:51:58.836Z,3.98
2017-05-22T15:54:27.197Z,3.88
2017-05-22T15:56:55.957Z,3.78
2017-05-22T15:59:24.325Z,3.36
2017-05-22T16:01:52.695Z,3.72
2017-05-22T16:04:21.150Z,3.72
2017-05-22T16:06:49.665Z,3.66
2017-05-22T16:09:18.030Z,3.70
2017-05-22T16:11:46.397Z,3.72
2017-05-22T16:14:15.081Z,3.80
2017-05-22T16:16:43.408Z,4.92
2017-05-22T16:19:11.769Z,3.82
2017-05-22T16:21:40.225Z,3.70
2017-05-22T16:24:08.606Z,3.74
2017-05-22T16:26:36.942Z,4.00
2017-05-22T16:29:05.361Z,4.26
2017-05-22T16:31:33.737Z,3.80
2017-05-22T16:34:03.187Z,3.96
2017-05-22T16:36:31.502Z,4.36
2017-05-22T16:38:59.923Z,4.04
2017-05-22T16:41:29.245Z,4.18
2017-05-22T16:43:57.610Z,3.92
2017-05-22T16:46:25.936Z,4.74
2017-05-22T16:48:54.383Z,3.84
2017-05-22T16:51:22.738Z,3.94
2017-05-22T16:53:51.046Z,4.04
2017-05-22T16:56:19.882Z,5.70
2017-05-22T16:58:48.251Z,4.42
2017-05-22T17:01:16.605Z,4.16
2017-05-22T17:03:45.138Z,4.04
2017-05-22T17:06:13.451Z,4.48
2017-05-22T17:08:41.767Z,4.56
2017-05-22T17:11:10.398Z,4.30
2017-05-22T17:13:38.713Z,5.02
2017-05-22T17:16:07.076Z,4.90
2017-05-22T17:18:35.750Z,4.66
2017-05-22T17:21:04.063Z,6.40
2017-05-22T17:23:32.417Z,4.80
2017-05-22T17:26:01.078Z,5.64
2017-05-22T17:28:29.833Z,5.06
2017-05-22T17:30:58.145Z,5.42
2017-05-22T17:33:26.460Z,5.42
2017-05-22T17:35:55.229Z,5.20
2017-05-22T17:38:23.550Z,5.32
2017-05-22T17:40:52.209Z,5.20
2017-05-22T17:43:25.701Z,5.72
2017-05-22T17:45:54.087Z,5.54
2017-05-22T17:48:26.620Z,5.82
2017-05-22T17:50:55.802Z,5.48
2017-05-22T17:53:24.123Z,5.40
2017-05-22T17:55:52.921Z,6.00
2017-05-22T17:58:21.277Z,5.84
2017-05-22T18:00:49.604Z,5.38
2017-05-22T18:03:18.132Z,5.36
2017-05-22T18:05:46.513Z,5.84
2017-05-22T18:08:14.936Z,5.32
2017-05-22T18:10:43.310Z,5.30
2017-05-22T18:13:11.673Z,6.10
2017-05-22T18:15:40.437Z,5.20
2017-05-22T18:18:08.819Z,5.42
2017-05-22T18:20:37.190Z,5.84
2017-05-22T18:23:05.679Z,5.88
2017-05-22T18:25:34.057Z,5.68
2017-05-22T18:28:02.805Z,5.98
2017-05-22T18:30:31.134Z,5.72
2017-05-22T18:32:59.458Z,5.98
2017-05-22T18:35:27.916Z,5.46
2017-05-22T18:37:56.005Z,5.52
2017-05-22T18:40:24.333Z,5.52
2017-05-22T18:42:53.105Z,6.02
2017-05-22T18:45:21.433Z,6.10
2017-05-22T18:47:49.749Z,5.66
2017-05-22T18:50:18.190Z,5.88
2017-05-22T18:52:46.553Z,5.94
2017-05-22T18:55:18.572Z,6.04
2017-05-22T18:57:46.938Z,7.22
2017-05-22T19:00:17.121Z,6.56
2017-05-22T19:02:45.447Z,6.08
2017-05-22T19:05:13.779Z,6.46
2017-05-22T19:07:46.481Z,6.52
2017-05-22T19:10:14.843Z,6.40
2017-05-22T19:12:43.168Z,6.54
2017-05-22T19:15:11.966Z,6.42
2017-05-22T19:17:40.291Z,6.64
2017-05-22T19:20:08.648Z,7.34
2017-05-22T19:22:37.205Z,7.12
2017-05-22T19:25:05.619Z,7.30
2017-05-22T19:27:33.989Z,6.64
2017-05-22T19:30:02.379Z,6.87
2017-05-22T19:32:30.701Z,7.23
2017-05-22T19:34:59.074Z,7.02
2017-05-22T19:37:32.758Z,6.83
2017-05-22T19:40:01.757Z,7.65
2017-05-22T19:42:30.162Z,7.65
2017-05-22T19:44:58.530Z,7.78
2017-05-22T19:47:26.892Z,7.64
2017-05-22T19:49:55.621Z,7.12
2017-05-22T19:52:23.941Z,7.97
2017-05-22T19:54:52.254Z,7.52
2017-05-22T19:57:20.145Z,6.93
2017-05-22T19:59:48.510Z,8.13
2017-05-22T20:02:16.882Z,7.47
2017-05-22T20:04:45.242Z,8.00
2017-05-22T20:07:13.607Z,7.35
2017-05-22T20:09:41.488Z,8.75
2017-05-22T20:12:09.798Z,8.03
2017-05-22T20:14:38.361Z,10.73
2017-05-22T20:17:06.735Z,8.57
2017-05-22T20:19:35.062Z,8.18
2017-05-22T20:22:03.465Z,8.75
2017-05-22T20:24:31.841Z,8.65
2017-05-22T20:27:00.418Z,9.27
2017-05-22T20:29:28.786Z,9.02
2017-05-22T20:31:57.731Z,8.93
2017-05-22T20:34:26.088Z,8.47
2017-05-22T20:36:54.459Z,10.08
2017-05-22T20:39:23.269Z,8.67
2017-05-22T20:41:56.839Z,8.82
2017-05-22T20:44:25.194Z,9.63
2017-05-22T20:46:54.189Z,9.50
2017-05-22T20:49:22.509Z,9.30
2017-05-22T20:51:50.879Z,9.77
2017-05-22T20:54:19.325Z,9.70
2017-05-22T20:56:47.695Z,9.42
2017-05-22T20:59:16.019Z,9.68
2017-05-22T21:01:44.473Z,10.25
2017-05-22T21:04:12.782Z,9.63
2017-05-22T21:06:41.589Z,9.87
2017-05-22T21:09:09.906Z,9.47
2017-05-22T21:11:38.213Z,9.52
2017-05-22T21:14:07.849Z,10.28
2017-05-22T21:16:36.171Z,9.87
2017-05-22T21:19:04.529Z,9.95
2017-05-22T21:21:32.898Z,10.32
2017-05-22T21:24:01.477Z,10.12
2017-05-22T21:26:29.797Z,10.83
2017-05-22T21:28:58.117Z,10.80
2017-05-22T21:31:26.970Z,10.88
2017-05-22T21:33:55.609Z,10.03
2017-05-22T21:36:23.973Z,9.62
2017-05-22T21:38:52.605Z,10.62
2017-05-22T21:41:20.962Z,11.72
2017-05-22T21:43:49.276Z,10.88
2017-05-22T21:46:18.020Z,11.22
2017-05-22T21:48:46.381Z,11.83
2017-05-22T21:51:14.710Z,11.52
2017-05-22T21:53:43.302Z,11.72
2017-05-22T21:56:11.622Z,11.03
2017-05-22T21:58:40.138Z,11.03
2017-05-22T22:01:08.521Z,10.87
2017-05-22T22:03:36.889Z,10.80
2017-05-22T22:06:05.296Z,10.90
2017-05-22T22:08:33.669Z,10.75
2017-05-22T22:11:06.150Z,11.72
2017-05-22T22:13:34.514Z,10.45
2017-05-22T22:16:02.890Z,10.13
2017-05-22T22:18:32.521Z,10.75
2017-05-22T22:21:00.878Z,11.08
2017-05-22T22:23:29.249Z,11.47
2017-05-22T22:25:57.657Z,11.78
2017-05-22T22:28:27.777Z,11.53
2017-05-22T22:30:56.156Z,11.30
2017-05-22T22:33:24.570Z,11.63
2017-05-22T22:35:53.052Z,11.20
2017-05-22T22:38:21.909Z,11.15
2017-05-22T22:40:50.242Z,11.30
2017-05-22T22:43:18.561Z,11.15
2017-05-22T22:45:46.995Z,11.50
2017-05-22T22:48:15.322Z,11.37
2017-05-22T22:50:43.681Z,12.10
2017-05-22T22:53:12.045Z,12.05
2017-05-22T22:55:40.405Z,11.82
2017-05-22T22:58:09.123Z,11.70
2017-05-22T23:00:37.509Z,12.07
2017-05-22T23:03:05.877Z,11.35
2017-05-22T23:05:34.340Z,11.02
2017-05-22T23:08:02.710Z,10.85
2017-05-22T23:10:30.641Z,11.88
2017-05-22T23:12:59.004Z,13.05
2017-05-22T23:15:27.331Z,11.83
2017-05-22T23:17:55.702Z,12.63
2017-05-22T23:20:24.021Z,12.63
2017-05-22T23:22:53.153Z,11.68
2017-05-22T23:25:21.520Z,12.00
2017-05-22T23:27:49.852Z,12.28
2017-05-22T23:30:18.210Z,11.75
2017-05-22T23:32:46.578Z,12.22
2017-05-22T23:35:15.100Z,11.48
2017-05-22T23:37:43.430Z,10.93
2017-05-22T23:40:11.799Z,11.38
2017-05-22T23:42:40.596Z,11.85
2017-05-22T23:45:08.960Z,12.48
2017-05-22T23:47:37.865Z,12.80
2017-05-22T23:50:06.241Z,11.55
2017-05-22T23:52:34.565Z,11.37
2017-05-22T23:55:02.970Z,11.37
2017-05-22T23:57:31.339Z,10.90
